createdAt,value
2018-08-03T00:00:08.657Z,85.38
2018-08-03T00:01:08.643Z,85.62
2018-08-03T00:02:08.630Z,85.62
2018-08-03T00:03:08.645Z,86.02
2018-08-03T00:04:08.613Z,85.31
2018-08-03T00:05:08.601Z,85.22
2018-08-03T00:06:08.589Z,85.02
2018-08-03T00:07:08.581Z,84.41
2018-08-03T00:08:08.566Z,84.91
2018-08-03T00:09:08.583Z,85.62
2018-08-03T00:10:08.551Z,85.72
2018-08-03T00:11:08.541Z,84.91
2018-08-03T00:12:08.522Z,85.42
2018-08-03T00:13:08.512Z,85.52
2018-08-03T00:14:08.527Z,86.43
2018-08-03T00:15:08.489Z,86.43
2018-08-03T00:16:08.499Z,85.72
2018-08-03T00:17:08.486Z,86.22
2018-08-03T00:18:08.474Z,86.53
2018-08-03T00:19:08.455Z,85.86
2018-08-03T00:20:08.454Z,87.03
2018-08-03T00:21:08.427Z,86.87
2018-08-03T00:22:08.415Z,86.47
2018-08-03T00:23:08.411Z,86.27
2018-08-03T00:24:08.403Z,85.76
2018-08-03T00:25:08.413Z,86.67
2018-08-03T00:26:08.389Z,86.87
2018-08-03T00:27:08.359Z,86.77
2018-08-03T00:28:08.355Z,86.77
2018-08-03T00:29:08.342Z,86.47
2018-08-03T00:30:08.353Z,86.57
2018-08-03T00:31:08.324Z,86.27
2018-08-03T00:32:08.306Z,86.36
2018-08-03T00:33:08.327Z,86.16
2018-08-03T00:34:08.292Z,86.67
2018-08-03T00:35:08.325Z,86.67
2018-08-03T00:36:08.281Z,86.41
2018-08-03T00:37:08.264Z,86.87
2018-08-03T00:38:08.250Z,86.27
2018-08-03T00:39:08.239Z,86.87
2018-08-03T00:40:08.242Z,86.81
2018-08-03T00:41:08.222Z,86.61
2018-08-03T00:42:08.204Z,87.21
2018-08-03T00:43:08.193Z,88.12
2018-08-03T00:44:08.175Z,88.12
2018-08-03T00:45:08.194Z,87.92
2018-08-03T00:46:08.156Z,88.12
2018-08-03T00:47:08.150Z,87.72
2018-08-03T00:48:08.139Z,88.23
2018-08-03T00:49:08.130Z,88.83
2018-08-03T00:50:08.134Z,88.32
2018-08-03T00:51:08.107Z,88.23
2018-08-03T00:52:08.091Z,88.32
2018-08-03T00:53:08.085Z,88.12
2018-08-03T00:54:08.069Z,89.03
2018-08-03T00:55:08.076Z,88.63
2018-08-03T00:56:08.058Z,88.23
2018-08-03T00:57:08.048Z,88.23
2018-08-03T00:58:08.032Z,88.12
2018-08-03T00:59:08.015Z,87.86
2018-08-03T01:00:08.042Z,88.57
2018-08-03T01:01:07.999Z,88.26
2018-08-03T01:02:07.995Z,88.67
2018-08-03T01:03:07.985Z,88.57
2018-08-03T01:04:07.976Z,88.63
2018-08-03T01:05:07.979Z,88.43
2018-08-03T01:06:07.954Z,88.47
2018-08-03T01:07:07.956Z,89.28
2018-08-03T01:08:07.952Z,88.97
2018-08-03T01:09:07.985Z,88.97
2018-08-03T01:10:07.958Z,88.77
2018-08-03T01:11:07.937Z,89.28
2018-08-03T01:12:07.899Z,89.17
2018-08-03T01:13:07.893Z,89.17
2018-08-03T01:14:07.880Z,89.48
2018-08-03T01:15:07.893Z,88.67
2018-08-03T01:16:07.834Z,89.17
2018-08-03T01:17:07.837Z,89.52
2018-08-03T01:18:07.813Z,90.03
2018-08-03T01:19:07.797Z,90.12
2018-08-03T01:20:07.811Z,90.12
2018-08-03T01:21:07.779Z,90.12
2018-08-03T01:22:07.769Z,89.32
2018-08-03T01:23:07.761Z,89.72
2018-08-03T01:24:07.753Z,90.83
2018-08-03T01:25:07.754Z,90.03
2018-08-03T01:26:07.723Z,90.03
2018-08-03T01:27:07.710Z,90.33
2018-08-03T01:28:07.705Z,90.23
2018-08-03T01:29:07.693Z,90.73
2018-08-03T01:30:07.708Z,90.33
2018-08-03T01:31:07.667Z,90.23
2018-08-03T01:32:07.665Z,90.53
2018-08-03T01:33:07.650Z,90.23
2018-08-03T01:34:07.643Z,90.43
2018-08-03T01:35:07.633Z,90.23
2018-08-03T01:36:07.644Z,90.58
2018-08-03T01:37:07.616Z,90.33
2018-08-03T01:38:07.607Z,90.03
2018-08-03T01:39:07.579Z,90.37
2018-08-03T01:40:07.576Z,90.27
2018-08-03T01:41:07.599Z,90.27
2018-08-03T01:42:07.558Z,90.37
2018-08-03T01:43:07.546Z,90.98
2018-08-03T01:44:07.525Z,90.67
2018-08-03T01:45:07.515Z,91.18
2018-08-03T01:46:07.527Z,91.08
2018-08-03T01:47:07.499Z,90.88
2018-08-03T01:48:07.483Z,90.98
2018-08-03T01:49:07.475Z,90.67
2018-08-03T01:50:07.465Z,90.88
2018-08-03T01:51:07.474Z,90.58
2018-08-03T01:52:07.446Z,90.88
2018-08-03T01:53:07.433Z,90.67
2018-08-03T01:54:07.421Z,91.53
2018-08-03T01:55:07.416Z,91.28
2018-08-03T01:56:07.422Z,91.49
2018-08-03T01:57:07.387Z,91.28
2018-08-03T01:58:07.377Z,91.53
2018-08-03T01:59:07.386Z,91.32
2018-08-03T02:00:07.360Z,91.32
2018-08-03T02:01:07.346Z,91.53
2018-08-03T02:02:07.353Z,92.13
2018-08-03T02:03:07.374Z,92.13
2018-08-03T02:04:07.316Z,92.03
2018-08-03T02:05:07.303Z,92.13
2018-08-03T02:06:07.291Z,92.44
2018-08-03T02:07:07.309Z,92.38
2018-08-03T02:08:07.264Z,92.24
2018-08-03T02:09:07.257Z,92.18
2018-08-03T02:10:07.246Z,92.64
2018-08-03T02:11:07.250Z,92.13
2018-08-03T02:12:07.233Z,92.03
2018-08-03T02:13:07.279Z,91.83
2018-08-03T02:14:07.204Z,91.63
2018-08-03T02:15:07.196Z,91.63
2018-08-03T02:16:07.184Z,91.83
2018-08-03T02:17:07.169Z,92.24
2018-08-03T02:18:07.161Z,91.87
2018-08-03T02:19:07.180Z,92.13
2018-08-03T02:20:07.138Z,92.18
2018-08-03T02:21:07.125Z,92.38
2018-08-03T02:22:07.116Z,92.99
2018-08-03T02:23:07.102Z,92.38
2018-08-03T02:24:07.099Z,92.88
2018-08-03T02:25:07.104Z,92.99
2018-08-03T02:26:07.077Z,93.19
2018-08-03T02:27:07.065Z,92.38
2018-08-03T02:28:07.063Z,92.88
2018-08-03T02:29:07.040Z,92.99
2018-08-03T02:30:07.059Z,93.08
2018-08-03T02:31:07.016Z,94.00
2018-08-03T02:32:07.011Z,93.08
2018-08-03T02:33:06.998Z,93.29
2018-08-03T02:34:06.985Z,93.70
2018-08-03T02:35:06.976Z,93.33
2018-08-03T02:36:07.002Z,92.99
2018-08-03T02:37:06.955Z,93.84
2018-08-03T02:38:06.949Z,92.99
2018-08-03T02:39:06.943Z,93.43
2018-08-03T02:40:06.918Z,93.79
2018-08-03T02:41:06.915Z,93.90
2018-08-03T02:42:06.933Z,94.14
2018-08-03T02:43:06.884Z,94.45
2018-08-03T02:44:06.881Z,94.45
2018-08-03T02:45:06.866Z,94.35
2018-08-03T02:46:06.887Z,94.04
2018-08-03T02:47:06.849Z,94.04
2018-08-03T02:48:06.832Z,93.63
2018-08-03T02:49:06.825Z,94.90
2018-08-03T02:50:06.813Z,94.59
2018-08-03T02:51:06.804Z,95.61
2018-08-03T02:52:06.809Z,94.85
2018-08-03T02:53:06.780Z,94.75
2018-08-03T02:54:06.768Z,93.63
2018-08-03T02:55:06.755Z,93.74
2018-08-03T02:56:06.750Z,94.04
2018-08-03T02:57:06.765Z,93.74
2018-08-03T02:58:06.727Z,94.35
2018-08-03T02:59:06.718Z,94.75
2018-08-03T03:00:06.703Z,94.24
2018-08-03T03:01:06.691Z,94.85
2018-08-03T03:02:06.681Z,94.49
2018-08-03T03:03:06.695Z,94.90
2018-08-03T03:04:06.665Z,94.65
2018-08-03T03:05:06.652Z,94.29
2018-08-03T03:06:06.637Z,95.20
2018-08-03T03:07:06.627Z,94.75
2018-08-03T03:08:06.620Z,94.70
2018-08-03T03:09:06.642Z,94.79
2018-08-03T03:10:06.606Z,94.59
2018-08-03T03:11:06.589Z,95.61
2018-08-03T03:12:06.590Z,95.10
2018-08-03T03:13:06.569Z,95.61
2018-08-03T03:14:06.568Z,95.30
2018-08-03T03:15:06.568Z,95.40
2018-08-03T03:16:06.539Z,95.71
2018-08-03T03:17:06.520Z,96.31
2018-08-03T03:18:06.509Z,95.10
2018-08-03T03:19:06.502Z,95.20
2018-08-03T03:20:06.487Z,95.10
2018-08-03T03:21:06.501Z,95.00
2018-08-03T03:22:06.466Z,95.40
2018-08-03T03:23:06.456Z,94.90
2018-08-03T03:24:06.438Z,95.20
2018-08-03T03:25:06.431Z,95.20
2018-08-03T03:26:06.443Z,94.70
2018-08-03T03:27:06.416Z,95.36
2018-08-03T03:28:06.424Z,95.50
2018-08-03T03:29:06.394Z,95.20
2018-08-03T03:30:06.382Z,95.20
2018-08-03T03:31:06.389Z,94.95
2018-08-03T03:32:06.360Z,95.00
2018-08-03T03:33:06.370Z,95.00
2018-08-03T03:34:06.393Z,94.90
2018-08-03T03:35:06.356Z,95.00
2018-08-03T03:36:06.348Z,94.79
2018-08-03T03:37:06.376Z,95.00
2018-08-03T03:38:06.352Z,96.11
2018-08-03T03:39:06.314Z,95.61
2018-08-03T03:40:06.308Z,95.30
2018-08-03T03:41:06.257Z,96.26
2018-08-03T03:42:06.246Z,96.22
2018-08-03T03:43:06.263Z,96.22
2018-08-03T03:44:06.245Z,95.71
2018-08-03T03:45:06.216Z,95.81
2018-08-03T03:46:06.205Z,95.71
2018-08-03T03:47:06.227Z,95.71
2018-08-03T03:48:06.193Z,95.00
2018-08-03T03:49:06.227Z,95.71
2018-08-03T03:50:06.192Z,95.50
2018-08-03T03:51:06.192Z,96.01
2018-08-03T03:52:06.179Z,96.01
2018-08-03T03:53:06.142Z,96.01
2018-08-03T03:54:06.129Z,96.06
2018-08-03T03:55:06.142Z,96.01
2018-08-03T03:56:06.101Z,96.22
2018-08-03T03:57:06.085Z,96.11
2018-08-03T03:58:06.074Z,96.22
2018-08-03T03:59:06.124Z,96.06
2018-08-03T04:00:06.076Z,96.66
2018-08-03T04:01:06.041Z,96.11
2018-08-03T04:02:06.029Z,96.31
2018-08-03T04:03:06.016Z,96.82
2018-08-03T04:04:06.011Z,96.22
2018-08-03T04:05:06.011Z,96.87
2018-08-03T04:06:06.026Z,97.07
2018-08-03T04:07:05.999Z,96.97
2018-08-03T04:08:05.997Z,97.23
2018-08-03T04:09:06.004Z,96.72
2018-08-03T04:10:05.998Z,97.43
2018-08-03T04:11:06.055Z,97.23
2018-08-03T04:12:05.996Z,97.02
2018-08-03T04:13:06.006Z,96.82
2018-08-03T04:14:05.983Z,96.51
2018-08-03T04:15:05.927Z,97.02
2018-08-03T04:16:05.920Z,96.51
2018-08-03T04:17:05.881Z,96.31
2018-08-03T04:18:05.924Z,96.92
2018-08-03T04:19:05.853Z,96.92
2018-08-03T04:20:05.832Z,96.92
2018-08-03T04:21:05.822Z,96.92
2018-08-03T04:22:05.889Z,96.31
2018-08-03T04:23:05.842Z,96.92
2018-08-03T04:24:05.795Z,97.02
2018-08-03T04:25:05.786Z,97.23
2018-08-03T04:26:05.786Z,97.43
2018-08-03T04:27:05.761Z,97.63
2018-08-03T04:28:05.750Z,96.92
2018-08-03T04:29:05.756Z,97.33
2018-08-03T04:30:05.730Z,97.63
2018-08-03T04:31:05.717Z,97.02
2018-08-03T04:32:05.701Z,97.99
2018-08-03T04:33:05.699Z,96.67
2018-08-03T04:34:05.719Z,97.28
2018-08-03T04:35:05.669Z,97.58
2018-08-03T04:36:05.664Z,97.69
2018-08-03T04:37:05.671Z,97.18
2018-08-03T04:38:05.694Z,97.58
2018-08-03T04:39:05.741Z,97.28
2018-08-03T04:40:05.639Z,96.98
2018-08-03T04:41:05.605Z,97.18
2018-08-03T04:42:05.617Z,97.08
2018-08-03T04:43:05.593Z,97.89
2018-08-03T04:44:05.626Z,97.69
2018-08-03T04:45:05.561Z,98.09
2018-08-03T04:46:05.593Z,97.89
2018-08-03T04:47:05.537Z,97.34
2018-08-03T04:48:05.535Z,97.38
2018-08-03T04:49:05.520Z,97.54
2018-08-03T04:50:05.513Z,97.85
2018-08-03T04:51:05.501Z,97.19
2018-08-03T04:52:05.523Z,97.19
2018-08-03T04:53:05.483Z,96.89
2018-08-03T04:54:05.464Z,96.08
2018-08-03T04:55:05.452Z,96.74
2018-08-03T04:56:05.458Z,96.84
2018-08-03T04:57:05.443Z,96.84
2018-08-03T04:58:05.454Z,97.14
2018-08-03T04:59:05.406Z,96.74
2018-08-03T05:00:05.405Z,96.94
2018-08-03T05:01:05.394Z,96.44
2018-08-03T05:02:05.379Z,96.23
2018-08-03T05:03:05.375Z,96.44
2018-08-03T05:04:05.376Z,96.29
2018-08-03T05:05:05.366Z,95.89
2018-08-03T05:06:05.334Z,95.78
2018-08-03T05:07:05.338Z,95.89
2018-08-03T05:08:05.395Z,96.04
2018-08-03T05:09:05.331Z,95.54
2018-08-03T05:10:05.291Z,95.14
2018-08-03T05:11:05.285Z,95.64
2018-08-03T05:12:05.266Z,96.25
2018-08-03T05:13:05.257Z,96.04
2018-08-03T05:14:05.248Z,95.43
2018-08-03T05:15:05.259Z,95.29
2018-08-03T05:16:05.224Z,95.19
2018-08-03T05:17:05.214Z,95.23
2018-08-03T05:18:05.204Z,94.63
2018-08-03T05:19:05.192Z,94.28
2018-08-03T05:20:05.216Z,93.98
2018-08-03T05:21:05.173Z,94.28
2018-08-03T05:22:05.174Z,94.28
2018-08-03T05:23:05.198Z,94.13
2018-08-03T05:24:05.143Z,94.64
2018-08-03T05:25:05.185Z,94.59
2018-08-03T05:26:05.150Z,93.29
2018-08-03T05:27:05.105Z,93.89
2018-08-03T05:28:05.103Z,93.89
2018-08-03T05:29:05.089Z,92.98
2018-08-03T05:30:05.081Z,92.58
2018-08-03T05:31:05.062Z,92.43
2018-08-03T05:32:05.086Z,93.54
2018-08-03T05:33:05.046Z,92.33
2018-08-03T05:34:05.042Z,92.43
2018-08-03T05:35:05.041Z,91.53
2018-08-03T05:36:05.091Z,91.38
2018-08-03T05:37:05.000Z,90.28
2018-08-03T05:38:05.014Z,90.58
2018-08-03T05:39:04.977Z,90.48
2018-08-03T05:40:04.973Z,90.37
2018-08-03T05:41:04.975Z,90.44
2018-08-03T05:42:04.951Z,90.13
2018-08-03T05:43:04.941Z,90.73
2018-08-03T05:44:04.955Z,90.73
2018-08-03T05:45:04.926Z,89.99
2018-08-03T05:46:04.911Z,89.89
2018-08-03T05:47:04.912Z,88.98
2018-08-03T05:48:04.883Z,88.84
2018-08-03T05:49:04.880Z,88.43
2018-08-03T05:50:04.893Z,87.89
2018-08-03T05:51:04.848Z,88.29
2018-08-03T05:52:04.842Z,86.28
2018-08-03T05:53:04.837Z,87.39
2018-08-03T05:54:04.818Z,87.99
2018-08-03T05:55:04.810Z,86.58
2018-08-03T05:56:04.819Z,85.44
2018-08-03T05:57:04.782Z,83.12
2018-08-03T05:58:04.836Z,82.32
2018-08-03T05:59:04.760Z,84.13
2018-08-03T06:00:04.772Z,86.14
2018-08-03T06:01:04.741Z,83.39
2018-08-03T06:02:04.755Z,82.68
2018-08-03T06:03:04.720Z,84.15
2018-08-03T06:04:04.774Z,84.75
2018-08-03T06:05:04.715Z,82.34
2018-08-03T06:06:04.687Z,84.41
2018-08-03T06:07:04.696Z,83.41
2018-08-03T06:08:04.759Z,84.91
2018-08-03T06:09:04.690Z,83.51
2018-08-03T06:10:04.654Z,84.21
2018-08-03T06:11:04.654Z,84.27
2018-08-03T06:12:04.629Z,84.17
2018-08-03T06:13:04.689Z,85.08
2018-08-03T06:14:04.601Z,84.97
2018-08-03T06:15:04.595Z,84.97
2018-08-03T06:16:04.596Z,81.82
2018-08-03T06:17:04.572Z,80.12
2018-08-03T06:18:04.611Z,79.42
2018-08-03T06:19:04.634Z,79.02
2018-08-03T06:20:04.603Z,78.22
2018-08-03T06:21:04.539Z,78.58
2018-08-03T06:22:04.524Z,79.28
2018-08-03T06:23:04.506Z,75.67
2018-08-03T06:24:04.496Z,76.98
2018-08-03T06:25:04.511Z,78.54
2018-08-03T06:26:04.473Z,81.24
2018-08-03T06:27:04.477Z,79.94
2018-08-03T06:28:04.452Z,78.14
2018-08-03T06:29:04.442Z,78.44
2018-08-03T06:30:04.431Z,76.64
2018-08-03T06:31:04.442Z,77.00
2018-08-03T06:32:04.423Z,78.00
2018-08-03T06:33:04.399Z,79.30
2018-08-03T06:34:04.413Z,81.01
2018-08-03T06:35:04.371Z,77.00
2018-08-03T06:36:04.368Z,78.56
2018-08-03T06:37:04.395Z,77.47
2018-08-03T06:38:04.399Z,79.27
2018-08-03T06:39:04.335Z,79.97
2018-08-03T06:40:04.317Z,76.46
2018-08-03T06:41:04.314Z,78.13
2018-08-03T06:42:04.303Z,78.36
2018-08-03T06:43:04.325Z,78.83
2018-08-03T06:44:04.282Z,73.33
2018-08-03T06:45:04.270Z,74.63
2018-08-03T06:46:04.257Z,74.63
2018-08-03T06:47:04.250Z,74.73
2018-08-03T06:48:04.233Z,75.23
2018-08-03T06:49:04.263Z,73.09
2018-08-03T06:50:04.262Z,72.49
2018-08-03T06:51:04.252Z,71.89
2018-08-03T06:52:04.189Z,74.66
2018-08-03T06:53:04.181Z,71.36
2018-08-03T06:54:04.178Z,71.66
2018-08-03T06:55:04.197Z,71.83
2018-08-03T06:56:04.177Z,71.03
2018-08-03T06:57:04.145Z,70.83
2018-08-03T06:58:04.142Z,71.92
2018-08-03T06:59:04.153Z,72.89
2018-08-03T07:00:04.169Z,70.69
2018-08-03T07:01:04.112Z,72.59
2018-08-03T07:02:04.409Z,70.39
2018-08-03T07:03:04.071Z,69.89
2018-08-03T07:04:04.069Z,70.46
2018-08-03T07:05:04.056Z,71.75
2018-08-03T07:06:04.060Z,72.85
2018-08-03T07:07:04.028Z,71.66
2018-08-03T07:08:04.045Z,72.05
2018-08-03T07:09:04.053Z,71.56
2018-08-03T07:10:04.009Z,70.62
2018-08-03T07:11:04.028Z,69.92
2018-08-03T07:12:03.977Z,79.10
2018-08-03T07:13:03.980Z,74.51
2018-08-03T07:14:03.957Z,74.11
2018-08-03T07:15:03.947Z,69.13
2018-08-03T07:16:03.939Z,71.78
2018-08-03T07:17:03.951Z,74.38
2018-08-03T07:18:03.927Z,79.27
2018-08-03T07:19:03.916Z,78.56
2018-08-03T07:20:03.954Z,74.11
2018-08-03T07:21:03.879Z,77.70
2018-08-03T07:22:03.872Z,79.50
2018-08-03T07:23:03.893Z,74.02
2018-08-03T07:24:03.844Z,72.58
2018-08-03T07:25:03.847Z,74.91
2018-08-03T07:26:03.825Z,77.07
2018-08-03T07:27:03.819Z,78.17
2018-08-03T07:28:03.810Z,71.78
2018-08-03T07:29:03.833Z,74.28
2018-08-03T07:30:03.785Z,71.35
2018-08-03T07:31:03.786Z,69.46
2018-08-03T07:32:03.773Z,77.93
2018-08-03T07:33:03.747Z,73.94
2018-08-03T07:34:03.742Z,72.65
2018-08-03T07:35:03.756Z,72.95
2018-08-03T07:36:03.725Z,71.02
2018-08-03T07:37:03.709Z,71.62
2018-08-03T07:38:03.701Z,72.88
2018-08-03T07:39:03.684Z,74.87
2018-08-03T07:40:03.760Z,72.28
2018-08-03T07:41:03.696Z,75.76
2018-08-03T07:42:03.669Z,73.28
2018-08-03T07:43:03.682Z,72.85
2018-08-03T07:44:03.635Z,70.95
2018-08-03T07:45:03.733Z,71.22
2018-08-03T07:46:03.639Z,72.51
2018-08-03T07:47:03.662Z,72.01
2018-08-03T07:48:03.592Z,72.61
2018-08-03T07:49:03.589Z,74.16
2018-08-03T07:50:03.576Z,68.80
2018-08-03T07:51:03.583Z,67.90
2018-08-03T07:52:03.565Z,67.30
2018-08-03T07:53:03.604Z,69.36
2018-08-03T07:54:03.535Z,66.55
2018-08-03T07:55:03.520Z,69.92
2018-08-03T07:56:03.506Z,66.71
2018-08-03T07:57:03.497Z,71.28
2018-08-03T07:58:03.487Z,69.09
2018-08-03T07:59:03.522Z,68.40
2018-08-03T08:00:03.467Z,67.60
2018-08-03T08:01:03.468Z,67.71
2018-08-03T08:02:03.463Z,65.99
2018-08-03T08:03:03.437Z,67.27
2018-08-03T08:04:03.421Z,68.57
2018-08-03T08:05:03.438Z,68.04
2018-08-03T08:06:03.413Z,69.82
2018-08-03T08:07:03.398Z,70.32
2018-08-03T08:08:03.406Z,67.54
2018-08-03T08:09:03.371Z,65.86
2018-08-03T08:10:03.365Z,64.76
2018-08-03T08:11:03.375Z,65.06
2018-08-03T08:12:03.341Z,64.86
2018-08-03T08:13:03.345Z,68.63
2018-08-03T08:14:03.316Z,64.93
2018-08-03T08:15:03.306Z,66.42
2018-08-03T08:16:03.293Z,66.32
2018-08-03T08:17:03.327Z,61.63
2018-08-03T08:18:03.267Z,63.12
2018-08-03T08:19:03.259Z,66.95
2018-08-03T08:20:03.251Z,66.55
2018-08-03T08:21:03.286Z,62.26
2018-08-03T08:22:03.244Z,59.19
2018-08-03T08:23:03.218Z,64.18
2018-08-03T08:24:03.210Z,60.13
2018-08-03T08:25:03.194Z,59.23
2018-08-03T08:26:03.246Z,60.32
2018-08-03T08:27:03.231Z,61.98
2018-08-03T08:28:03.164Z,59.20
2018-08-03T08:29:03.165Z,60.30
2018-08-03T08:30:03.141Z,59.08
2018-08-03T08:31:03.136Z,58.09
2018-08-03T08:32:03.136Z,62.44
2018-08-03T08:33:03.170Z,56.91
2018-08-03T08:34:03.117Z,62.34
2018-08-03T08:35:03.110Z,58.06
2018-08-03T08:36:03.129Z,57.37
2018-08-03T08:37:03.128Z,58.53
2018-08-03T08:38:03.060Z,58.73
2018-08-03T08:39:03.084Z,58.14
2018-08-03T08:40:03.047Z,56.33
2018-08-03T08:41:03.034Z,59.09
2018-08-03T08:42:03.018Z,58.01
2018-08-03T08:43:03.010Z,56.30
2018-08-03T08:44:03.009Z,53.52
2018-08-03T08:45:03.015Z,57.56
2018-08-03T08:46:02.984Z,58.51
2018-08-03T08:47:02.985Z,53.78
2018-08-03T08:48:02.962Z,53.36
2018-08-03T08:49:03.004Z,51.59
2018-08-03T08:50:02.972Z,54.84
2018-08-03T08:51:02.929Z,54.55
2018-08-03T08:52:02.921Z,56.62
2018-08-03T08:53:02.915Z,54.64
2018-08-03T08:54:02.902Z,53.86
2018-08-03T08:55:02.901Z,52.97
2018-08-03T08:56:02.922Z,53.66
2018-08-03T08:57:02.866Z,52.36
2018-08-03T08:58:02.864Z,50.95
2018-08-03T08:59:02.863Z,50.07
2018-08-03T09:00:02.839Z,53.39
2018-08-03T09:01:02.928Z,49.33
2018-08-03T09:02:02.817Z,52.75
2018-08-03T09:03:02.811Z,53.04
2018-08-03T09:04:02.811Z,49.01
2018-08-03T09:05:02.832Z,52.15
2018-08-03T09:06:02.783Z,49.38
2018-08-03T09:07:02.798Z,47.20
2018-08-03T09:08:02.760Z,51.03
2018-08-03T09:09:02.747Z,49.16
2018-08-03T09:10:02.737Z,50.51
2018-08-03T09:11:02.730Z,51.49
2018-08-03T09:12:02.721Z,48.13
2018-08-03T09:13:02.748Z,51.66
2018-08-03T09:14:02.699Z,49.38
2018-08-03T09:15:02.708Z,49.09
2018-08-03T09:16:02.704Z,48.90
2018-08-03T09:17:02.690Z,48.87
2018-08-03T09:18:02.666Z,46.72
2018-08-03T09:19:02.681Z,45.91
2018-08-03T09:20:02.645Z,46.30
2018-08-03T09:21:02.641Z,49.21
2018-08-03T09:22:02.668Z,50.29
2018-08-03T09:23:02.617Z,48.33
2018-08-03T09:24:02.637Z,46.40
2018-08-03T09:25:02.660Z,47.47
2018-08-03T09:26:02.588Z,49.26
2018-08-03T09:27:02.585Z,49.36
2018-08-03T09:28:02.565Z,45.25
2018-08-03T09:29:02.559Z,49.16
2018-08-03T09:30:02.645Z,48.87
2018-08-03T09:31:02.633Z,45.44
2018-08-03T09:32:02.527Z,46.59
2018-08-03T09:33:02.513Z,43.76
2018-08-03T09:34:02.505Z,46.57
2018-08-03T09:35:02.515Z,48.53
2018-08-03T09:36:02.488Z,49.02
2018-08-03T09:37:02.481Z,46.86
2018-08-03T09:38:02.475Z,48.72
2018-08-03T09:39:02.526Z,47.16
2018-08-03T09:40:02.491Z,46.67
2018-08-03T09:41:02.433Z,46.97
2018-08-03T09:42:02.424Z,48.92
2018-08-03T09:43:02.463Z,44.32
2018-08-03T09:44:02.427Z,44.59
2018-08-03T09:45:02.401Z,44.40
2018-08-03T09:46:02.384Z,46.92
2018-08-03T09:47:02.378Z,44.38
2018-08-03T09:48:02.369Z,48.07
2018-08-03T09:49:02.382Z,46.53
2018-08-03T09:50:02.352Z,45.26
2018-08-03T09:51:02.339Z,43.30
2018-08-03T09:52:02.326Z,47.48
2018-08-03T09:53:02.317Z,48.09
2018-08-03T09:54:02.334Z,45.28
2018-08-03T09:55:02.302Z,47.33
2018-08-03T09:56:02.287Z,46.16
2018-08-03T09:57:02.282Z,48.92
2018-08-03T09:58:02.268Z,49.04
2018-08-03T09:59:02.282Z,46.40
2018-08-03T10:00:02.276Z,49.26
2018-08-03T10:01:02.230Z,48.58
2018-08-03T10:02:02.225Z,49.65
2018-08-03T10:03:02.216Z,46.25
2018-08-03T10:04:02.212Z,48.50
2018-08-03T10:05:02.241Z,47.23
2018-08-03T10:06:02.190Z,48.72
2018-08-03T10:07:02.177Z,49.02
2018-08-03T10:08:02.174Z,47.45
2018-08-03T10:09:02.174Z,45.68
2018-08-03T10:10:02.142Z,50.61
2018-08-03T10:11:02.157Z,46.78
2018-08-03T10:12:02.175Z,49.04
2018-08-03T10:13:02.127Z,44.92
2018-08-03T10:14:02.095Z,47.67
2018-08-03T10:15:02.092Z,51.76
2018-08-03T10:16:02.080Z,47.16
2018-08-03T10:17:02.090Z,44.51
2018-08-03T10:18:02.056Z,44.31
2018-08-03T10:19:02.059Z,44.41
2018-08-03T10:20:02.039Z,43.13
2018-08-03T10:21:02.033Z,47.25
2018-08-03T10:22:02.056Z,48.99
2018-08-03T10:23:02.017Z,47.13
2018-08-03T10:24:01.997Z,44.98
2018-08-03T10:25:01.985Z,45.05
2018-08-03T10:26:01.996Z,42.62
2018-08-03T10:27:01.969Z,47.72
2018-08-03T10:28:01.984Z,42.91
2018-08-03T10:29:01.951Z,46.64
2018-08-03T10:30:01.941Z,47.42
2018-08-03T10:31:01.930Z,46.54
2018-08-03T10:32:01.926Z,47.06
2018-08-03T10:33:01.902Z,47.27
2018-08-03T10:34:01.939Z,46.91
2018-08-03T10:35:01.913Z,44.59
2018-08-03T10:36:01.872Z,44.01
2018-08-03T10:37:01.865Z,45.60
2018-08-03T10:38:01.858Z,47.36
2018-08-03T10:39:01.851Z,47.17
2018-08-03T10:40:01.865Z,46.78
2018-08-03T10:41:01.872Z,48.57
2018-08-03T10:42:01.834Z,47.49
2018-08-03T10:43:01.848Z,48.08
2018-08-03T10:44:01.793Z,45.52
2018-08-03T10:45:01.834Z,50.93
2018-08-03T10:46:01.771Z,46.41
2018-08-03T10:47:01.803Z,49.95
2018-08-03T10:48:01.755Z,49.87
2018-08-03T10:49:01.748Z,48.69
2018-08-03T10:50:01.758Z,45.67
2018-08-03T10:51:01.731Z,47.83
2018-08-03T10:52:01.726Z,47.14
2018-08-03T10:53:01.708Z,49.11
2018-08-03T10:54:01.699Z,50.71
2018-08-03T10:55:01.687Z,45.27
2018-08-03T10:56:01.712Z,44.51
2018-08-03T10:57:01.670Z,46.65
2018-08-03T10:58:01.659Z,47.31
2018-08-03T10:59:01.642Z,47.78
2018-08-03T11:00:01.636Z,43.51
2018-08-03T11:01:01.630Z,49.08
2018-08-03T11:02:01.652Z,42.61
2018-08-03T11:03:01.647Z,46.91
2018-08-03T11:04:01.592Z,44.43
2018-08-03T11:05:01.589Z,44.12
2018-08-03T11:06:01.585Z,47.45
2018-08-03T11:07:01.566Z,43.72
2018-08-03T11:08:01.584Z,44.80
2018-08-03T11:09:01.542Z,44.98
2018-08-03T11:10:01.531Z,41.82
2018-08-03T11:11:01.523Z,45.42
2018-08-03T11:12:01.513Z,41.80
2018-08-03T11:13:01.508Z,44.66
2018-08-03T11:14:01.559Z,45.25
2018-08-03T11:15:01.496Z,40.92
2018-08-03T11:16:01.468Z,39.84
2018-08-03T11:17:01.456Z,42.97
2018-08-03T11:18:01.466Z,43.44
2018-08-03T11:19:01.467Z,44.71
2018-08-03T11:20:01.430Z,45.28
2018-08-03T11:21:01.428Z,43.81
2018-08-03T11:22:01.407Z,42.15
2018-08-03T11:23:01.400Z,42.32
2018-08-03T11:24:01.607Z,43.01
2018-08-03T11:25:01.386Z,42.13
2018-08-03T11:26:01.377Z,39.86
2018-08-03T11:27:01.368Z,39.86
2018-08-03T11:28:01.367Z,39.94
2018-08-03T11:29:01.352Z,40.14
2018-08-03T11:30:01.363Z,42.94
2018-08-03T11:31:01.344Z,40.39
2018-08-03T11:32:01.331Z,36.65
2018-08-03T11:33:01.315Z,41.60
2018-08-03T11:34:01.317Z,36.02
2018-08-03T11:35:01.321Z,36.59
2018-08-03T11:36:01.356Z,38.81
2018-08-03T11:37:01.275Z,33.25
2018-08-03T11:38:01.281Z,33.23
2018-08-03T11:39:01.266Z,34.75
2018-08-03T11:40:01.254Z,33.56
2018-08-03T11:41:01.242Z,35.56
2018-08-03T11:42:01.262Z,32.54
2018-08-03T11:43:01.231Z,33.73
2018-08-03T11:44:01.237Z,34.35
2018-08-03T11:45:01.216Z,32.45
2018-08-03T11:46:01.208Z,35.89
2018-08-03T11:47:01.198Z,35.00
2018-08-03T11:48:01.216Z,34.35
2018-08-03T11:49:01.188Z,34.97
2018-08-03T11:50:01.174Z,35.96
2018-08-03T11:51:01.161Z,40.48
2018-08-03T11:52:01.157Z,40.80
2018-08-03T11:53:01.164Z,42.29
2018-08-03T11:54:01.249Z,39.98
2018-08-03T11:55:01.121Z,43.03
2018-08-03T11:56:01.114Z,42.48
2018-08-03T11:57:01.109Z,40.84
2018-08-03T11:58:01.101Z,38.49
2018-08-03T11:59:01.089Z,36.96
2018-08-03T12:00:01.122Z,32.65
2018-08-03T12:01:01.104Z,34.83
2018-08-03T12:02:01.146Z,35.78
2018-08-03T12:03:01.052Z,34.66
2018-08-03T12:04:01.039Z,36.16
2018-08-03T12:05:01.043Z,36.55
2018-08-03T12:06:01.054Z,38.42
2018-08-03T12:07:01.011Z,36.12
2018-08-03T12:08:01.013Z,30.20
2018-08-03T12:09:01.001Z,30.07
2018-08-03T12:10:00.993Z,30.43
2018-08-03T12:11:00.977Z,29.16
2018-08-03T12:12:01.008Z,29.82
2018-08-03T12:13:00.967Z,32.29
2018-08-03T12:14:00.972Z,30.16
2018-08-03T12:15:00.954Z,29.29
2018-08-03T12:16:00.938Z,29.87
2018-08-03T12:17:00.936Z,30.32
2018-08-03T12:18:01.044Z,30.10
2018-08-03T12:19:00.939Z,26.42
2018-08-03T12:20:00.951Z,27.38
2018-08-03T12:21:00.909Z,28.16
2018-08-03T12:22:00.929Z,30.73
2018-08-03T12:23:00.893Z,28.05
2018-08-03T12:24:00.880Z,30.82
2018-08-03T12:25:00.874Z,27.72
2018-08-03T12:26:00.870Z,27.82
2018-08-03T12:27:00.861Z,26.06
2018-08-03T12:28:00.880Z,26.71
2018-08-03T12:29:00.854Z,26.30
2018-08-03T12:30:00.836Z,27.92
2018-08-03T12:31:00.829Z,26.94
2018-08-03T12:32:00.829Z,25.98
2018-08-03T12:33:00.821Z,25.98
2018-08-03T12:34:00.832Z,26.19
2018-08-03T12:35:00.823Z,25.83
2018-08-03T12:36:00.801Z,26.46
2018-08-03T12:37:00.839Z,31.43
2018-08-03T12:38:00.785Z,26.87
2018-08-03T12:39:00.799Z,28.09
2018-08-03T12:40:00.768Z,26.31
2018-08-03T12:41:00.761Z,25.90
2018-08-03T12:42:00.749Z,25.40
2018-08-03T12:43:00.740Z,24.82
2018-08-03T12:44:00.738Z,26.85
2018-08-03T12:45:00.762Z,25.64
2018-08-03T12:46:00.724Z,27.92
2018-08-03T12:47:00.711Z,32.82
2018-08-03T12:48:00.699Z,27.89
2018-08-03T12:49:00.711Z,28.92
2018-08-03T12:50:00.710Z,31.29
2018-08-03T12:51:00.706Z,26.27
2018-08-03T12:52:00.676Z,26.54